Time;durP1;ratioP1;P1;durP2;ratioP2;P2;SDS_P1;SDS_P2;PMS_P1;PMS_P2;Temp;Humidity;BMP_temperature;BMP_pressure;BME280_temperature;BME280_humidity;BME280_pressure;Samples;Min_cycle;Max_cycle;Signal;HPM_P1;HPM_P2
2022/07/04 00:00:36;;;;;;;1.10;0.85;;;22.60;58.90;;;;;;10380406;28;20132;-55
2022/07/04 00:05:37;;;;;;;1.17;0.80;;;22.60;58.90;;;;;;10397760;28;20100;-56
2022/07/04 00:10:38;;;;;;;0.80;0.73;;;22.60;58.90;;;;;;10411458;28;20033;-56
2022/07/04 00:15:38;;;;;;;1.85;1.05;;;22.60;58.90;;;;;;10397613;28;20116;-55
2022/07/04 00:20:39;;;;;;;1.58;0.80;;;22.60;58.90;;;;;;10374894;28;20033;-53
2022/07/04 00:25:40;;;;;;;2.30;0.73;;;22.60;58.90;;;;;;10377586;28;20029;-56
2022/07/04 00:30:41;;;;;;;2.63;1.10;;;22.60;58.90;;;;;;10384506;28;20052;-56
2022/07/04 00:35:41;;;;;;;3.08;1.00;;;22.60;58.90;;;;;;10373919;28;20088;-55
2022/07/04 00:40:42;;;;;;;1.67;0.93;;;22.60;58.90;;;;;;10370158;28;20030;-56
2022/07/04 00:45:43;;;;;;;2.78;0.90;;;22.60;59.00;;;;;;10369893;28;20389;-56
2022/07/04 00:50:46;;;;;;;0.90;0.60;;;22.50;58.80;;;;;;10396619;28;20044;-55
2022/07/04 00:55:46;;;;;;;3.78;1.77;;;22.50;58.90;;;;;;10382127;28;20037;-55
2022/07/04 01:00:48;;;;;;;2.13;1.10;;;22.50;58.70;;;;;;10407977;28;20095;-57
2022/07/04 01:05:49;;;;;;;0.77;0.70;;;22.60;58.70;;;;;;10408509;28;20124;-56
2022/07/04 01:10:49;;;;;;;0.77;0.70;;;22.60;58.50;;;;;;10392401;28;20033;-54
2022/07/04 01:15:50;;;;;;;2.80;0.95;;;22.50;58.40;;;;;;10375139;28;20082;-56
2022/07/04 01:20:51;;;;;;;1.30;1.00;;;22.50;58.50;;;;;;10408581;28;20100;-56
2022/07/04 01:25:52;;;;;;;1.83;0.88;;;22.50;58.60;;;;;;10389412;28;20026;-55
2022/07/04 01:30:53;;;;;;;1.75;0.80;;;22.50;58.60;;;;;;10379727;28;20040;-56
2022/07/04 01:35:54;;;;;;;1.95;1.38;;;22.50;58.60;;;;;;10408796;28;20511;-56
2022/07/04 01:40:54;;;;;;;2.53;1.20;;;22.50;58.60;;;;;;10368568;28;20072;-56
2022/07/04 01:45:55;;;;;;;2.22;0.95;;;22.50;58.60;;;;;;10374865;28;20037;-55
2022/07/04 01:50:56;;;;;;;1.48;0.80;;;22.50;58.40;;;;;;10410492;28;20581;-56
2022/07/04 01:55:56;;;;;;;0.80;0.68;;;22.50;58.40;;;;;;10394104;28;20112;-56
2022/07/04 02:06:16;;;;;;;1.52;0.90;;;22.50;58.40;;;;;;10393992;28;20045;-56
2022/07/04 02:11:17;;;;;;;1.50;0.93;;;22.40;58.40;;;;;;10393040;28;20033;-55
2022/07/04 02:16:18;;;;;;;1.75;1.20;;;22.40;58.40;;;;;;10398470;28;20036;-56
2022/07/04 02:21:19;;;;;;;1.77;0.90;;;22.40;58.40;;;;;;10367363;28;20686;-56
2022/07/04 02:26:19;;;;;;;1.08;0.80;;;22.40;58.30;;;;;;10367404;28;20164;-55
2022/07/04 02:31:20;;;;;;;2.35;1.80;;;22.40;58.40;;;;;;10380367;28;20132;-56
2022/07/04 02:36:21;;;;;;;0.93;0.70;;;22.40;58.40;;;;;;10406793;28;20100;-57
2022/07/04 02:41:22;;;;;;;1.50;0.90;;;22.40;58.40;;;;;;10407947;28;20108;-56
2022/07/04 02:46:23;;;;;;;1.38;0.80;;;22.40;58.40;;;;;;10406765;28;20033;-56
2022/07/04 02:51:24;;;;;;;1.48;0.93;;;22.40;58.30;;;;;;10402158;28;20106;-55
2022/07/04 02:56:24;;;;;;;1.23;0.70;;;22.40;58.60;;;;;;10404411;28;20511;-54
2022/07/04 03:01:25;;;;;;;1.33;0.60;;;22.40;58.00;;;;;;10379217;28;20030;-56
2022/07/04 03:06:26;;;;;;;1.42;0.80;;;22.40;57.90;;;;;;10372773;28;20022;-55
2022/07/04 03:11:27;;;;;;;1.10;0.70;;;22.30;57.80;;;;;;10372668;28;20092;-55
2022/07/04 03:16:28;;;;;;;0.88;0.70;;;22.30;57.90;;;;;;10388612;28;20041;-53
2022/07/04 03:21:29;;;;;;;2.22;0.70;;;22.30;57.90;;;;;;10412962;28;20109;-56
2022/07/04 03:26:32;;;;;;;2.17;1.10;;;22.30;57.90;;;;;;10373129;28;20037;-55
2022/07/04 03:31:33;;;;;;;1.48;0.88;;;22.30;57.90;;;;;;10388295;28;20429;-55
2022/07/04 03:36:34;;;;;;;1.02;0.90;;;22.30;57.80;;;;;;10393987;28;20046;-56
2022/07/04 03:41:36;;;;;;;3.10;0.90;;;22.30;57.80;;;;;;10372366;28;20474;-56
2022/07/04 03:46:36;;;;;;;0.70;0.68;;;22.30;57.80;;;;;;10391456;28;20033;-55
2022/07/04 03:51:37;;;;;;;1.00;0.80;;;22.30;57.80;;;;;;10399288;28;20041;-54
2022/07/04 03:56:38;;;;;;;1.58;0.75;;;22.20;57.80;;;;;;10378076;28;20419;-55
2022/07/04 04:01:38;;;;;;;1.20;0.70;;;22.30;57.70;;;;;;10408564;28;20151;-55
2022/07/04 04:06:40;;;;;;;1.38;0.65;;;22.30;57.80;;;;;;10407131;28;20033;-55
2022/07/04 04:11:40;;;;;;;1.00;0.68;;;22.20;57.80;;;;;;10386268;28;20486;-56
2022/07/04 04:16:42;;;;;;;1.27;0.90;;;22.20;57.80;;;;;;10409064;28;20080;-55
2022/07/04 04:21:43;;;;;;;1.25;1.02;;;22.20;57.90;;;;;;10383340;28;20025;-55
2022/07/04 04:26:44;;;;;;;1.10;0.57;;;22.20;58.00;;;;;;10397007;28;20029;-54
2022/07/04 04:31:45;;;;;;;1.38;0.98;;;22.20;58.00;;;;;;10397943;28;20512;-55
2022/07/04 04:36:45;;;;;;;1.08;0.63;;;22.20;58.10;;;;;;10382806;28;20248;-55
2022/07/04 04:41:46;;;;;;;0.70;0.70;;;22.20;58.10;;;;;;10386192;28;20022;-56
2022/07/04 04:46:47;;;;;;;3.85;0.77;;;22.20;58.30;;;;;;10376721;28;20116;-56
2022/07/04 04:51:47;;;;;;;1.15;0.70;;;22.20;58.30;;;;;;10405118;28;20477;-55
2022/07/04 04:56:48;;;;;;;4.03;1.27;;;22.20;58.90;;;;;;10377112;28;20433;-55
2022/07/04 05:01:49;;;;;;;2.95;0.85;;;22.20;59.30;;;;;;10384712;28;20113;-51
2022/07/04 05:06:50;;;;;;;3.80;1.20;;;22.20;59.50;;;;;;10401696;28;20161;-52
2022/07/04 05:11:51;;;;;;;5.30;1.02;;;22.30;60.10;;;;;;10407133;28;20065;-54
2022/07/04 05:16:51;;;;;;;3.75;1.25;;;22.30;61.20;;;;;;10406337;28;20080;-55
2022/07/04 05:21:52;;;;;;;6.10;1.40;;;22.30;60.80;;;;;;10408619;28;20622;-52
2022/07/04 05:26:53;;;;;;;5.03;1.45;;;22.30;61.00;;;;;;10398129;28;20602;-55
2022/07/04 05:31:54;;;;;;;5.68;1.63;;;22.30;60.50;;;;;;10374654;28;20052;-55
2022/07/04 05:36:54;;;;;;;7.25;1.60;;;22.40;60.40;;;;;;10385179;28;20052;-55
2022/07/04 05:41:55;;;;;;;4.45;1.55;;;22.30;60.50;;;;;;10372361;28;20042;-56
2022/07/04 05:46:56;;;;;;;8.70;1.88;;;22.30;60.70;;;;;;10375164;28;20041;-57
2022/07/04 05:51:56;;;;;;;5.95;2.25;;;22.30;60.60;;;;;;10392221;28;20065;-61
2022/07/04 05:56:57;;;;;;;11.90;3.45;;;22.30;61.30;;;;;;10379155;28;20052;-54
2022/07/04 06:01:58;;;;;;;22.20;4.35;;;22.30;61.00;;;;;;10388019;28;20037;-54
2022/07/04 06:06:59;;;;;;;10.00;2.20;;;22.30;60.70;;;;;;10362715;28;20038;-55
2022/07/04 06:12:00;;;;;;;23.05;3.33;;;22.30;60.70;;;;;;10379481;28;20040;-56
2022/07/04 06:17:00;;;;;;;10.05;1.88;;;22.30;60.90;;;;;;10391056;28;20030;-56
2022/07/04 06:22:01;;;;;;;5.85;2.08;;;22.30;60.80;;;;;;10404880;28;20044;-55
2022/07/04 06:27:03;;;;;;;10.15;2.05;;;22.30;60.70;;;;;;10408430;28;20033;-56
2022/07/04 06:32:04;;;;;;;4.63;1.75;;;22.30;60.70;;;;;;10407416;28;20421;-56
2022/07/04 06:37:04;;;;;;;4.75;1.63;;;22.30;60.60;;;;;;10412464;28;20045;-56
2022/07/04 06:42:05;;;;;;;11.60;2.20;;;22.30;60.60;;;;;;10389591;28;20053;-56
2022/07/04 06:47:06;;;;;;;5.35;1.70;;;22.20;60.50;;;;;;10375031;28;20072;-56
2022/07/04 06:52:07;;;;;;;3.25;1.67;;;22.20;60.60;;;;;;10394038;28;20593;-56
2022/07/04 06:57:07;;;;;;;8.15;1.27;;;22.20;60.70;;;;;;10394231;28;20029;-57
2022/07/04 07:02:08;;;;;;;6.63;1.80;;;22.20;60.80;;;;;;10370575;28;20022;-56
2022/07/04 07:07:09;;;;;;;3.95;1.95;;;22.20;60.90;;;;;;10387438;28;20033;-55
2022/07/04 07:12:10;;;;;;;5.53;1.67;;;22.20;61.00;;;;;;10391493;28;20064;-55
2022/07/04 07:17:10;;;;;;;3.15;1.83;;;22.20;61.20;;;;;;10391783;28;20113;-53
2022/07/04 07:22:13;;;;;;;5.55;1.90;;;22.20;61.30;;;;;;10390528;28;20080;-56
2022/07/04 07:27:13;;;;;;;3.10;1.45;;;22.20;61.30;;;;;;10380740;28;20030;-55
2022/07/04 07:32:14;;;;;;;5.90;1.40;;;22.20;61.40;;;;;;10391407;28;20030;-56
2022/07/04 07:37:17;;;;;;;2.47;1.13;;;22.20;61.30;;;;;;10383636;28;20061;-56
2022/07/04 07:42:18;;;;;;;4.55;1.80;;;22.20;61.20;;;;;;10386360;28;20029;-55
2022/07/04 07:47:19;;;;;;;5.65;2.00;;;22.20;61.20;;;;;;10385316;28;20030;-54
2022/07/04 07:52:19;;;;;;;5.03;1.70;;;22.20;61.20;;;;;;10395341;28;20051;-56
2022/07/04 07:57:20;;;;;;;4.40;2.22;;;22.30;61.20;;;;;;10386542;28;20246;-55
2022/07/04 08:04:34;;;;;;;5.45;3.45;;;22.20;61.20;;;;;;10390420;28;20071;-55
2022/07/04 08:07:42;;;;;;;9.60;2.20;;;22.20;61.40;;;;;;10387181;28;20026;-55
2022/07/04 08:12:43;;;;;;;7.40;2.03;;;22.20;61.60;;;;;;10387374;28;20033;-56
2022/07/04 08:17:44;;;;;;;6.50;2.58;;;22.20;62.20;;;;;;10385925;28;20076;-56
2022/07/04 08:22:45;;;;;;;4.60;2.05;;;22.30;62.10;;;;;;10388384;28;20465;-56
2022/07/04 08:27:45;;;;;;;7.40;2.65;;;22.20;62.20;;;;;;10384573;28;20037;-55
2022/07/04 08:32:46;;;;;;;4.07;2.00;;;22.20;62.10;;;;;;10400003;28;20041;-55
2022/07/04 08:37:52;;;;;;;5.38;2.00;;;22.20;62.10;;;;;;10409138;28;20049;-54
2022/07/04 08:42:54;;;;;;;4.55;1.98;;;22.20;62.00;;;;;;10395339;28;20025;-55
2022/07/04 08:48:07;;;;;;;4.95;2.30;;;22.20;62.00;;;;;;10409763;28;20033;-54
2022/07/04 08:53:18;;;;;;;3.92;1.83;;;22.20;61.90;;;;;;10401544;28;20396;-56
2022/07/04 08:58:25;;;;;;;3.25;1.60;;;22.20;61.90;;;;;;10394401;28;20324;-55
2022/07/04 09:03:28;;;;;;;3.20;1.80;;;22.20;61.90;;;;;;10384422;28;20104;-55
2022/07/04 09:08:29;;;;;;;7.30;2.08;;;22.20;61.90;;;;;;10372393;28;20025;-55
2022/07/04 09:13:31;;;;;;;4.75;2.28;;;22.20;61.90;;;;;;10379400;28;20041;-55
2022/07/04 09:18:35;;;;;;;4.22;2.00;;;22.20;61.90;;;;;;10369599;28;20488;-54
2022/07/04 09:23:41;;;;;;;5.07;2.42;;;22.20;61.80;;;;;;10372684;28;20559;-55
2022/07/04 09:28:52;;;;;;;5.05;3.10;;;22.20;61.80;;;;;;10380711;28;20033;-54
2022/07/04 09:34:05;;;;;;;6.63;3.63;;;22.20;61.60;;;;;;10400925;28;20095;-56
2022/07/04 09:39:19;;;;;;;5.53;3.00;;;22.30;61.70;;;;;;10390614;28;20060;-54
2022/07/04 09:44:25;;;;;;;4.28;3.22;;;22.20;61.70;;;;;;10380502;28;20037;-52
2022/07/04 09:49:26;;;;;;;5.53;3.63;;;22.20;61.60;;;;;;10384529;28;20147;-54
2022/07/04 09:54:33;;;;;;;6.43;3.13;;;22.30;61.10;;;;;;10365511;28;20021;-54
2022/07/04 09:59:34;;;;;;;6.00;3.05;;;22.30;60.90;;;;;;10364484;28;20104;-53
2022/07/04 10:04:55;;;;;;;5.30;2.47;;;22.30;60.90;;;;;;10366221;28;20637;-52
2022/07/04 10:09:55;;;;;;;3.15;1.90;;;22.30;60.80;;;;;;10366244;28;20052;-53
2022/07/04 10:14:56;;;;;;;7.82;3.20;;;22.30;60.60;;;;;;10374230;28;20052;-52
2022/07/04 10:19:57;;;;;;;6.85;2.38;;;22.30;60.40;;;;;;10380824;28;20649;-52
2022/07/04 10:24:58;;;;;;;4.50;2.25;;;22.30;60.70;;;;;;10378351;28;20489;-54
2022/07/04 10:30:02;;;;;;;4.32;2.28;;;22.30;60.80;;;;;;10367573;28;20160;-51
2022/07/04 10:35:04;;;;;;;5.28;2.22;;;22.30;61.10;;;;;;10390431;28;20046;-54
2022/07/04 10:40:07;;;;;;;7.25;2.30;;;22.30;61.30;;;;;;10388415;28;20116;-53
2022/07/04 10:45:08;;;;;;;11.85;2.78;;;22.30;61.40;;;;;;10364338;28;20571;-54
2022/07/04 10:50:09;;;;;;;5.15;2.15;;;22.30;61.50;;;;;;10384417;28;20042;-53
2022/07/04 10:55:14;;;;;;;6.05;2.90;;;22.30;61.50;;;;;;10386396;28;20034;-52
2022/07/04 11:00:14;;;;;;;7.43;2.17;;;22.30;61.70;;;;;;10377011;28;20036;-52
2022/07/04 11:05:17;;;;;;;9.43;2.30;;;22.40;61.70;;;;;;10400151;28;20025;-52
2022/07/04 11:15:32;;;;;;;4.72;2.30;;;22.40;61.50;;;;;;10371854;28;20557;-55
2022/07/04 11:20:36;;;;;;;4.05;1.98;;;22.40;61.50;;;;;;10373202;28;20038;-55
2022/07/04 11:25:39;;;;;;;2.85;1.73;;;22.40;61.40;;;;;;10372911;28;20022;-52
2022/07/04 11:30:57;;;;;;;3.67;2.00;;;22.30;61.50;;;;;;10371519;28;20409;-53
2022/07/04 11:36:09;;;;;;;4.07;1.75;;;22.40;61.40;;;;;;10393045;28;20488;-51
2022/07/04 11:46:28;;;;;;;6.75;3.20;;;22.40;60.70;;;;;;10413163;28;20037;-52
2022/07/04 11:51:29;;;;;;;6.32;2.10;;;22.40;61.00;;;;;;10402299;28;20536;-51
2022/07/04 11:56:30;;;;;;;4.22;1.90;;;22.50;61.00;;;;;;10371535;28;20096;-55
2022/07/04 12:01:30;;;;;;;6.10;2.60;;;22.50;61.00;;;;;;10377657;28;20036;-52
2022/07/04 12:06:31;;;;;;;3.97;1.88;;;22.50;61.00;;;;;;10376299;28;20057;-53
2022/07/04 12:11:56;;;;;;;8.90;2.15;;;22.50;60.90;;;;;;10369534;28;20036;-53
2022/07/04 12:17:15;;;;;;;4.78;2.10;;;22.50;60.90;;;;;;10371318;28;20033;-52
2022/07/04 12:22:41;;;;;;;7.05;2.42;;;22.50;60.80;;;;;;10368619;28;20029;-53
2022/07/04 12:27:41;;;;;;;4.22;1.90;;;22.60;61.00;;;;;;10370433;28;20053;-55
2022/07/04 12:32:57;;;;;;;5.78;2.13;;;22.60;60.80;;;;;;10394888;28;20033;-55
2022/07/04 12:38:17;;;;;;;6.97;2.45;;;22.60;60.60;;;;;;10396546;28;20049;-56
2022/07/04 12:43:18;;;;;;;;;;;22.60;60.80;;;;;;10411265;28;20025;-53
2022/07/04 12:48:25;;;;;;;5.03;2.50;;;22.60;60.70;;;;;;10382718;28;19936;-56
2022/07/04 12:53:25;;;;;;;5.68;2.30;;;22.60;60.60;;;;;;10384561;28;20033;-54
2022/07/04 12:58:26;;;;;;;6.65;2.35;;;22.60;60.50;;;;;;10385570;28;20388;-55
2022/07/04 13:03:28;;;;;;;6.20;2.38;;;22.70;60.40;;;;;;10392264;28;20116;-55
2022/07/04 13:08:29;;;;;;;5.72;2.67;;;22.60;59.80;;;;;;10381491;28;20432;-57
2022/07/04 13:13:30;;;;;;;4.07;2.55;;;22.60;59.10;;;;;;10409925;28;20083;-55
2022/07/04 13:18:31;;;;;;;21.50;3.95;;;22.60;58.50;;;;;;10409452;28;20464;-55
2022/07/04 13:23:31;;;;;;;15.45;3.60;;;22.60;58.90;;;;;;10402168;28;20765;-53
2022/07/04 13:28:32;;;;;;;9.75;3.25;;;22.70;59.10;;;;;;10391930;28;20429;-55
2022/07/04 13:33:33;;;;;;;6.82;2.85;;;22.70;59.10;;;;;;10402072;28;20591;-51
2022/07/04 13:38:33;;;;;;;7.60;2.97;;;22.70;58.50;;;;;;10387749;28;20034;-54
2022/07/04 13:43:34;;;;;;;5.38;2.40;;;22.70;58.50;;;;;;10367045;28;20488;-54
2022/07/04 13:48:35;;;;;;;6.75;2.42;;;22.70;58.50;;;;;;10377419;28;20034;-51
2022/07/04 13:53:36;;;;;;;5.65;1.88;;;22.70;58.50;;;;;;10375622;28;20036;-52
2022/07/04 13:58:37;;;;;;;5.78;2.05;;;22.70;58.50;;;;;;10366431;28;20068;-54
2022/07/04 14:03:38;;;;;;;6.10;2.67;;;22.60;58.50;;;;;;10366400;28;20050;-53
2022/07/04 14:08:39;;;;;;;3.92;2.20;;;22.60;58.50;;;;;;10366013;28;20603;-52
2022/07/04 14:13:40;;;;;;;5.65;2.20;;;22.60;58.60;;;;;;10377917;28;20489;-52
2022/07/04 14:18:41;;;;;;;3.38;1.88;;;22.60;58.60;;;;;;10371381;28;20026;-55
2022/07/04 14:23:42;;;;;;;5.55;2.30;;;22.60;58.70;;;;;;10386224;28;20124;-55
2022/07/04 14:28:46;;;;;;;14.45;2.70;;;22.60;59.50;;;;;;10392060;28;20105;-54
2022/07/04 14:33:47;;;;;;;7.75;2.83;;;22.60;60.10;;;;;;10371208;28;20041;-54
2022/07/04 14:38:47;;;;;;;11.57;3.25;;;22.70;60.20;;;;;;10395656;28;20120;-53
2022/07/04 14:43:48;;;;;;;10.65;2.33;;;22.70;60.70;;;;;;10404636;28;20025;-54
2022/07/04 14:48:49;;;;;;;16.63;3.17;;;22.70;60.70;;;;;;10404077;28;20045;-53
2022/07/04 14:53:49;;;;;;;10.20;2.65;;;22.70;60.80;;;;;;10388731;28;20742;-53
2022/07/04 14:58:50;;;;;;;6.82;2.38;;;22.70;60.70;;;;;;10397598;28;20029;-56
2022/07/04 15:03:51;;;;;;;29.80;5.32;;;22.70;60.80;;;;;;10384121;28;20033;-53
2022/07/04 15:08:52;;;;;;;19.58;4.30;;;22.70;60.90;;;;;;10391300;28;20030;-54
2022/07/04 15:13:53;;;;;;;18.60;5.40;;;22.70;60.80;;;;;;10396490;28;20036;-55
2022/07/04 15:18:54;;;;;;;15.68;3.28;;;22.70;60.80;;;;;;10396507;28;20567;-54
2022/07/04 15:29:14;;;;;;;26.60;3.78;;;22.70;60.70;;;;;;10375161;28;20034;-54
2022/07/04 15:34:16;;;;;;;17.23;3.08;;;22.70;61.10;;;;;;10399218;28;20064;-54
2022/07/04 15:39:17;;;;;;;15.38;2.72;;;22.60;60.80;;;;;;10403699;28;20486;-54
2022/07/04 15:44:21;;;;;;;10.32;2.83;;;22.60;60.10;;;;;;10402754;28;20083;-56
2022/07/04 15:49:22;;;;;;;15.07;3.30;;;22.60;59.40;;;;;;10410730;28;20021;-55
2022/07/04 15:54:22;;;;;;;18.83;6.80;;;22.60;59.60;;;;;;10371970;28;20041;-54
2022/07/04 15:59:23;;;;;;;13.57;3.63;;;22.60;59.00;;;;;;10374667;28;20033;-55
2022/07/04 16:04:24;;;;;;;13.82;7.50;;;22.60;58.70;;;;;;10378856;28;20028;-54
2022/07/04 16:09:26;;;;;;;19.50;15.57;;;22.60;58.50;;;;;;10388261;28;20044;-55
2022/07/04 16:14:26;;;;;;;15.40;12.82;;;22.60;57.90;;;;;;10397191;28;20041;-53
2022/07/04 16:19:27;;;;;;;15.02;10.43;;;22.60;58.00;;;;;;10395148;28;20525;-56
2022/07/04 16:24:29;;;;;;;12.57;10.98;;;22.60;58.00;;;;;;10388717;28;20269;-52
2022/07/04 16:29:29;;;;;;;10.63;8.50;;;22.70;57.90;;;;;;10406065;28;20057;-54
2022/07/04 16:34:30;;;;;;;9.57;7.40;;;22.70;57.00;;;;;;10392160;28;20390;-56
2022/07/04 16:39:31;;;;;;;6.72;6.03;;;22.70;57.30;;;;;;10383048;28;20109;-55
2022/07/04 16:44:31;;;;;;;7.68;5.80;;;22.70;56.80;;;;;;10370060;28;20389;-54
2022/07/04 16:49:32;;;;;;;7.22;4.13;;;22.70;56.70;;;;;;10384618;28;20537;-54
2022/07/04 16:54:33;;;;;;;8.35;3.20;;;22.70;55.60;;;;;;10386836;28;20037;-54
2022/07/04 16:59:34;;;;;;;5.47;2.42;;;22.70;54.50;;;;;;10388062;28;20337;-56
2022/07/04 17:04:34;;;;;;;4.20;2.10;;;22.70;54.70;;;;;;10378313;28;20029;-54
2022/07/04 17:09:35;;;;;;;4.15;2.20;;;22.70;54.40;;;;;;10380512;28;20042;-51
2022/07/04 17:14:36;;;;;;;3.85;1.98;;;22.70;54.60;;;;;;10386567;28;20041;-53
2022/07/04 17:19:37;;;;;;;5.40;2.10;;;22.70;54.60;;;;;;10391269;28;20121;-52
2022/07/04 17:24:38;;;;;;;4.22;2.40;;;22.70;55.00;;;;;;10380064;28;20038;-52
2022/07/04 17:29:39;;;;;;;4.05;2.28;;;22.70;54.70;;;;;;10375342;28;20400;-54
2022/07/04 17:34:40;;;;;;;3.70;2.20;;;22.70;54.40;;;;;;10380759;28;20538;-53
2022/07/04 17:39:41;;;;;;;6.30;2.05;;;22.70;54.40;;;;;;10382147;28;20116;-50
2022/07/04 17:44:42;;;;;;;3.10;1.92;;;22.70;54.30;;;;;;10393973;28;20037;-55
2022/07/04 17:49:43;;;;;;;7.22;3.70;;;22.60;55.10;;;;;;10378571;28;20046;-51
2022/07/04 17:54:44;;;;;;;3.50;1.80;;;22.70;55.50;;;;;;10380701;28;20030;-53
2022/07/04 17:59:47;;;;;;;4.20;1.95;;;22.70;55.40;;;;;;10378986;28;20052;-51
2022/07/04 18:04:47;;;;;;;6.75;2.33;;;22.70;55.40;;;;;;10374820;28;20508;-52
2022/07/04 18:09:48;;;;;;;4.47;1.98;;;22.60;55.30;;;;;;10366396;28;20134;-55
2022/07/04 18:14:49;;;;;;;3.30;1.73;;;22.70;55.40;;;;;;10393302;28;20029;-55
2022/07/04 18:19:49;;;;;;;5.15;1.67;;;22.60;55.50;;;;;;10382871;28;20128;-53
2022/07/04 18:24:50;;;;;;;4.43;1.73;;;22.60;55.10;;;;;;10381034;28;20038;-55
2022/07/04 18:29:51;;;;;;;2.53;1.60;;;22.70;55.40;;;;;;10376495;28;20112;-54
2022/07/04 18:34:51;;;;;;;3.55;1.52;;;22.60;55.30;;;;;;10413724;28;20427;-54
2022/07/04 18:39:52;;;;;;;3.95;1.80;;;22.70;55.40;;;;;;10396897;28;20048;-53
2022/07/04 18:44:53;;;;;;;4.65;1.77;;;22.60;55.50;;;;;;10403795;28;20022;-52
2022/07/04 18:49:54;;;;;;;3.00;1.77;;;22.70;56.00;;;;;;10376459;28;20125;-53
2022/07/04 18:54:55;;;;;;;3.50;1.83;;;22.60;56.20;;;;;;10374474;28;20553;-54
2022/07/04 19:00:00;;;;;;;4.70;1.88;;;22.70;56.10;;;;;;10381433;28;20037;-53
2022/07/04 19:05:01;;;;;;;1.98;1.30;;;22.60;56.20;;;;;;10388691;28;20064;-52
2022/07/04 19:10:02;;;;;;;3.65;1.50;;;22.60;56.30;;;;;;10394027;28;20030;-55
2022/07/04 19:15:03;;;;;;;5.25;2.13;;;22.60;56.70;;;;;;10387798;28;20037;-52
2022/07/04 19:20:05;;;;;;;5.22;1.75;;;22.60;56.70;;;;;;10387630;28;20053;-53
2022/07/04 19:25:08;;;;;;;3.03;1.60;;;22.70;56.90;;;;;;10384792;28;20050;-56
2022/07/04 19:30:09;;;;;;;3.38;1.42;;;22.70;57.10;;;;;;10387700;28;20145;-56
2022/07/04 19:35:11;;;;;;;3.20;1.50;;;22.70;57.00;;;;;;10391170;28;20054;-56
2022/07/04 19:40:12;;;;;;;2.75;1.50;;;22.70;57.10;;;;;;10379760;28;20114;-57
2022/07/04 19:45:13;;;;;;;2.78;1.13;;;22.70;57.00;;;;;;10372664;28;20087;-57
2022/07/04 19:50:14;;;;;;;2.20;1.45;;;22.70;57.20;;;;;;10392694;28;20084;-57
2022/07/04 19:55:16;;;;;;;2.25;1.25;;;22.70;57.00;;;;;;10387441;28;20108;-57
2022/07/04 20:00:17;;;;;;;3.22;1.58;;;22.70;57.00;;;;;;10375142;28;20029;-58
2022/07/04 20:05:18;;;;;;;2.13;1.23;;;22.70;57.00;;;;;;10398389;28;20030;-57
2022/07/04 20:10:19;;;;;;;2.50;1.42;;;22.60;56.90;;;;;;10410979;28;20033;-56
2022/07/04 20:15:19;;;;;;;2.22;1.08;;;22.70;57.00;;;;;;10387500;28;20045;-56
2022/07/04 20:20:20;;;;;;;2.05;1.10;;;22.60;57.00;;;;;;10373606;28;20113;-58
2022/07/04 20:25:21;;;;;;;1.67;1.10;;;22.60;57.10;;;;;;10384646;28;20501;-57
2022/07/04 20:30:22;;;;;;;2.15;1.50;;;22.60;57.10;;;;;;10394575;28;20029;-57
2022/07/04 20:35:23;;;;;;;1.67;1.10;;;22.60;57.20;;;;;;10390708;28;20050;-56
2022/07/04 20:40:24;;;;;;;1.85;1.30;;;22.60;57.20;;;;;;10369085;28;20053;-57
2022/07/04 20:45:24;;;;;;;2.20;1.25;;;22.60;57.30;;;;;;10370608;28;20030;-57
2022/07/04 20:50:25;;;;;;;1.40;1.20;;;22.60;57.20;;;;;;10390794;28;20033;-56
2022/07/04 20:55:26;;;;;;;1.50;1.10;;;22.60;57.20;;;;;;10388196;28;20415;-58
2022/07/04 21:00:27;;;;;;;2.75;1.08;;;22.60;57.20;;;;;;10381935;28;20028;-57
2022/07/04 21:05:27;;;;;;;1.52;1.10;;;22.60;57.20;;;;;;10377205;28;20033;-57
2022/07/04 21:10:28;;;;;;;2.28;1.40;;;22.60;57.20;;;;;;10367590;28;20022;-56
2022/07/04 21:15:29;;;;;;;1.27;1.17;;;22.60;57.20;;;;;;10376027;28;20629;-56
2022/07/04 21:20:30;;;;;;;2.40;1.60;;;22.60;57.20;;;;;;10367403;28;20088;-56
2022/07/04 21:25:31;;;;;;;1.67;1.40;;;22.60;57.20;;;;;;10386650;28;20038;-58
2022/07/04 21:30:31;;;;;;;1.73;1.20;;;22.60;57.20;;;;;;10394769;28;20025;-57
2022/07/04 21:35:32;;;;;;;2.95;1.17;;;22.60;57.30;;;;;;10386783;28;20050;-56
2022/07/04 21:40:34;;;;;;;2.00;1.83;;;22.60;57.10;;;;;;10380021;28;20022;-57
2022/07/04 21:45:34;;;;;;;1.63;1.08;;;22.60;57.10;;;;;;10377223;28;20034;-57
2022/07/04 21:50:35;;;;;;;1.35;1.15;;;22.60;57.00;;;;;;10390907;28;20045;-56
2022/07/04 21:55:36;;;;;;;2.22;1.13;;;22.60;57.10;;;;;;10366440;28;20030;-57
2022/07/04 22:00:38;;;;;;;2.13;1.33;;;22.60;57.00;;;;;;10375915;28;20030;-57
2022/07/04 22:05:39;;;;;;;1.55;1.02;;;22.60;57.00;;;;;;10367084;28;20194;-57
2022/07/04 22:10:40;;;;;;;1.35;1.10;;;22.60;57.00;;;;;;10367520;28;20038;-57
2022/07/04 22:15:40;;;;;;;1.73;1.38;;;22.60;57.00;;;;;;10397409;28;20021;-58
2022/07/04 22:20:41;;;;;;;1.42;1.00;;;22.60;57.00;;;;;;10408296;28;20034;-58
2022/07/04 22:25:42;;;;;;;1.65;1.15;;;22.50;57.00;;;;;;10407565;28;20029;-57
2022/07/04 22:30:43;;;;;;;2.90;1.10;;;22.50;56.90;;;;;;10402719;28;20021;-58
2022/07/04 22:35:44;;;;;;;2.40;1.35;;;22.50;56.90;;;;;;10406926;28;20431;-55
2022/07/04 22:40:44;;;;;;;2.47;1.25;;;22.50;56.90;;;;;;10407771;28;20088;-57
2022/07/04 22:45:45;;;;;;;1.70;1.00;;;22.50;57.40;;;;;;10384557;28;20029;-56
2022/07/04 22:56:06;;;;;;;;;;;22.50;56.70;;;;;;10366726;28;20042;-56
2022/07/04 23:01:07;;;;;;;2.55;1.15;;;22.50;56.40;;;;;;10378432;28;19913;-57
2022/07/04 23:06:08;;;;;;;1.70;1.25;;;22.50;56.60;;;;;;10390730;28;20082;-57
2022/07/04 23:11:09;;;;;;;2.35;1.63;;;22.50;56.60;;;;;;10400871;28;20533;-57
2022/07/04 23:16:09;;;;;;;1.98;1.23;;;22.50;57.30;;;;;;10373853;28;20449;-57
2022/07/04 23:21:10;;;;;;;1.13;1.02;;;22.50;56.60;;;;;;10398139;28;20033;-57
2022/07/04 23:26:11;;;;;;;2.30;1.30;;;22.50;56.60;;;;;;10384707;28;20469;-56
2022/07/04 23:31:12;;;;;;;1.40;1.20;;;22.50;56.60;;;;;;10383818;28;20449;-56
2022/07/04 23:36:12;;;;;;;3.10;1.35;;;22.50;56.60;;;;;;10411541;28;20057;-57
2022/07/04 23:41:13;;;;;;;1.83;1.08;;;22.40;56.50;;;;;;10386589;28;20111;-56
2022/07/04 23:46:14;;;;;;;2.22;1.40;;;22.50;56.60;;;;;;10400915;28;20033;-57
2022/07/04 23:51:15;;;;;;;2.47;1.55;;;22.40;56.40;;;;;;10402490;28;20036;-57
2022/07/04 23:56:15;;;;;;;1.83;1.40;;;22.40;56.40;;;;;;10371047;28;20084;-57
